Time;durP1;ratioP1;P1;durP2;ratioP2;P2;SDS_P1;SDS_P2;PMS_P1;PMS_P2;Temp;Humidity;BMP_temperature;BMP_pressure;BME280_temperature;BME280_humidity;BME280_pressure;Samples;Min_cycle;Max_cycle;Signal;HPM_P1;HPM_P2
2022/04/11 00:01:12;;;;;;;6.40;3.33;;;-0.60;1.00;;;;;;4996409;28;20049;-81
2022/04/11 00:03:38;;;;;;;7.25;3.30;;;-0.70;1.00;;;;;;4998327;28;20050;-82
2022/04/11 00:06:03;;;;;;;8.75;3.28;;;-0.60;1.00;;;;;;4995859;28;20386;-82
2022/04/11 00:08:29;;;;;;;7.90;3.60;;;-0.60;1.00;;;;;;4995821;28;20022;-82
2022/04/11 00:10:55;;;;;;;5.53;3.50;;;-0.60;1.00;;;;;;4996096;28;20029;-82
2022/04/11 00:13:20;;;;;;;5.68;2.78;;;-0.60;1.00;;;;;;4995014;28;20058;-81
2022/04/11 00:15:46;;;;;;;7.15;3.33;;;-0.70;1.00;;;;;;4984333;28;20098;-81
2022/04/11 00:18:12;;;;;;;8.27;2.40;;;-0.70;1.00;;;;;;4996061;28;20121;-82
2022/04/11 00:20:37;;;;;;;6.07;2.70;;;-0.70;1.00;;;;;;4984935;28;20031;-82
2022/04/11 00:23:04;;;;;;;8.70;3.40;;;-0.80;1.00;;;;;;4976519;28;20027;-82
2022/04/11 00:25:30;;;;;;;9.15;2.97;;;-0.80;1.00;;;;;;4976225;28;20490;-82
2022/04/11 00:27:56;;;;;;;7.43;3.17;;;-0.80;1.00;;;;;;4981591;28;20030;-82
2022/04/11 00:30:21;;;;;;;6.80;3.45;;;-0.70;1.00;;;;;;4979459;28;20027;-82
2022/04/11 00:32:47;;;;;;;7.05;3.80;;;-0.70;1.00;;;;;;4976738;28;20261;-82
2022/04/11 00:35:13;;;;;;;5.13;2.72;;;-0.70;1.00;;;;;;4978035;28;20109;-81
2022/04/11 00:37:40;;;;;;;6.18;3.30;;;-0.70;1.00;;;;;;4994532;28;20030;-81
2022/04/11 00:40:08;;;;;;;7.50;3.28;;;-0.70;1.00;;;;;;4996127;28;20050;-83
2022/04/11 00:42:33;;;;;;;6.30;3.15;;;-0.70;1.00;;;;;;4995221;28;20058;-82
2022/04/11 00:45:00;;;;;;;5.78;3.03;;;-0.60;1.00;;;;;;4995761;28;20030;-82
2022/04/11 00:47:29;;;;;;;7.47;3.00;;;-0.40;1.00;;;;;;4994914;28;20026;-82
2022/04/11 00:50:00;;;;;;;5.05;2.83;;;-0.30;1.00;;;;;;4994558;28;20113;-82
2022/04/11 00:52:27;;;;;;;6.25;3.03;;;-0.40;1.00;;;;;;4990276;28;20030;-82
2022/04/11 00:55:04;;;;;;;4.55;2.78;;;-0.40;1.00;;;;;;4977923;28;20671;-81
2022/04/11 00:57:30;;;;;;;6.25;3.13;;;-0.50;1.00;;;;;;4979219;28;20042;-81
2022/04/11 00:59:57;;;;;;;7.88;3.05;;;-0.50;1.00;;;;;;4995172;28;20027;-82
2022/04/11 01:02:23;;;;;;;7.38;3.20;;;-0.60;1.00;;;;;;4995511;28;20018;-81
2022/04/11 01:04:48;;;;;;;6.55;2.97;;;-0.50;1.00;;;;;;4978813;28;20037;-82
2022/04/11 01:07:14;;;;;;;6.18;3.30;;;-0.50;1.00;;;;;;4995200;28;20156;-81
2022/04/11 01:09:41;;;;;;;8.75;2.80;;;-0.30;1.00;;;;;;4995369;28;20027;-82
2022/04/11 01:12:07;;;;;;;7.88;3.63;;;-0.40;1.00;;;;;;4996219;28;20089;-82
2022/04/11 01:14:32;;;;;;;11.35;3.45;;;-0.40;1.00;;;;;;5042312;23;20049;-79
2022/04/11 01:16:59;;;;;;;5.45;3.38;;;0.00;6.90;;;;;;5035560;28;20026;-80
2022/04/11 01:19:26;;;;;;;7.80;3.25;;;0.10;42.90;;;;;;5031260;28;20018;-80
2022/04/11 01:21:51;;;;;;;5.10;3.15;;;-0.30;52.10;;;;;;5023156;28;20105;-80
2022/04/11 01:24:22;;;;;;;4.22;3.00;;;-0.50;58.20;;;;;;5024093;28;20029;-80
2022/04/11 01:26:49;;;;;;;4.47;3.17;;;-0.40;57.90;;;;;;5034916;28;20033;-79
2022/04/11 01:29:17;;;;;;;6.35;3.72;;;-0.30;72.50;;;;;;5029642;28;20036;-79
2022/04/11 01:31:42;;;;;;;6.00;3.35;;;-0.20;86.20;;;;;;5030174;28;20072;-80
2022/04/11 01:34:08;;;;;;;8.05;3.67;;;-0.20;91.00;;;;;;5042797;28;20029;-80
2022/04/11 01:36:34;;;;;;;9.57;3.92;;;-0.30;96.30;;;;;;5034081;28;20061;-80
2022/04/11 01:38:59;;;;;;;6.50;3.30;;;-0.20;97.40;;;;;;5025843;28;20033;-79
2022/04/11 01:41:25;;;;;;;5.40;3.30;;;-0.30;99.60;;;;;;5022226;28;20082;-79
2022/04/11 01:43:50;;;;;;;5.13;3.25;;;-0.40;98.90;;;;;;5031574;28;20493;-80
2022/04/11 01:46:16;;;;;;;7.03;3.55;;;-0.20;99.90;;;;;;5031439;28;20037;-79
2022/04/11 01:48:42;;;;;;;6.35;3.50;;;-0.10;99.90;;;;;;5030236;28;20030;-79
2022/04/11 01:51:07;;;;;;;7.28;4.22;;;0.00;99.90;;;;;;5034628;28;20040;-79
2022/04/11 01:53:33;;;;;;;8.68;3.75;;;-0.10;99.90;;;;;;5021836;28;20457;-80
2022/04/11 01:55:58;;;;;;;6.68;3.47;;;-0.10;99.90;;;;;;5036612;28;20113;-80
2022/04/11 01:58:24;;;;;;;5.47;3.35;;;-0.10;99.90;;;;;;5041396;28;20029;-79
2022/04/11 02:00:50;;;;;;;6.63;3.63;;;0.10;99.90;;;;;;5042022;28;20040;-80
2022/04/11 02:03:16;;;;;;;7.43;3.97;;;0.10;99.90;;;;;;5054461;28;20010;-79
2022/04/11 02:05:42;;;;;;;8.68;3.78;;;0.00;99.90;;;;;;5047300;28;20030;-80
2022/04/11 02:08:10;;;;;;;8.15;3.35;;;0.20;99.90;;;;;;5045293;28;20056;-80
2022/04/11 02:10:37;;;;;;;6.60;3.63;;;0.10;99.90;;;;;;5050098;28;20026;-80
2022/04/11 02:13:03;;;;;;;9.77;3.72;;;0.00;99.90;;;;;;5058065;28;20040;-79
2022/04/11 02:15:29;;;;;;;7.80;3.58;;;-0.10;99.90;;;;;;5051015;28;20032;-80
2022/04/11 02:17:55;;;;;;;8.18;3.22;;;-0.10;99.90;;;;;;5043055;28;20033;-80
2022/04/11 02:20:20;;;;;;;11.15;3.92;;;-0.10;99.90;;;;;;5051062;28;20053;-80
2022/04/11 02:22:50;;;;;;;7.85;3.55;;;-0.10;99.90;;;;;;5041027;28;20037;-80
2022/04/11 02:25:18;;;;;;;6.80;3.00;;;-0.30;99.90;;;;;;5043656;28;20048;-79
2022/04/11 02:27:44;;;;;;;8.07;3.40;;;-0.30;99.90;;;;;;5040491;28;20257;-79
2022/04/11 02:30:11;;;;;;;4.30;3.03;;;-0.30;99.90;;;;;;5052669;28;20097;-79
2022/04/11 02:32:37;;;;;;;5.88;3.20;;;-0.30;99.90;;;;;;5039092;28;20073;-80
2022/04/11 02:35:03;;;;;;;6.05;3.40;;;-0.20;99.90;;;;;;5045927;28;20045;-80
2022/04/11 02:37:29;;;;;;;6.93;3.20;;;0.00;99.90;;;;;;5054472;28;20033;-80
2022/04/11 02:39:55;;;;;;;6.05;3.45;;;0.00;99.90;;;;;;5049390;28;20034;-80
2022/04/11 02:42:24;;;;;;;6.90;3.45;;;0.10;99.90;;;;;;5057988;28;20041;-80
2022/04/11 02:44:50;;;;;;;5.38;3.13;;;0.10;99.90;;;;;;5047539;28;20036;-80
2022/04/11 02:47:16;;;;;;;4.93;3.45;;;0.10;99.90;;;;;;5038147;28;20078;-80
2022/04/11 02:49:43;;;;;;;7.32;3.67;;;0.20;99.90;;;;;;5044564;28;20060;-80
2022/04/11 02:52:09;;;;;;;7.03;3.45;;;0.30;99.90;;;;;;5046473;28;20017;-80
2022/04/11 02:54:36;;;;;;;6.38;3.58;;;0.20;99.90;;;;;;5053585;28;20026;-79
2022/04/11 02:57:02;;;;;;;10.93;4.18;;;0.20;99.90;;;;;;5049430;28;20206;-80
2022/04/11 02:59:28;;;;;;;5.13;3.70;;;0.40;99.90;;;;;;5051786;28;20017;-80
2022/04/11 03:01:55;;;;;;;4.65;3.20;;;0.50;99.90;;;;;;5037448;28;20057;-79
2022/04/11 03:04:20;;;;;;;6.15;3.47;;;0.60;99.90;;;;;;5036159;28;20065;-80
2022/04/11 03:06:46;;;;;;;5.45;3.60;;;0.60;99.90;;;;;;5037089;28;20030;-79
2022/04/11 03:09:11;;;;;;;8.77;3.75;;;0.70;99.90;;;;;;5047769;28;20025;-80
2022/04/11 03:11:37;;;;;;;7.13;3.50;;;0.60;99.90;;;;;;5050374;28;20056;-80
2022/04/11 03:14:03;;;;;;;6.15;3.63;;;0.80;99.90;;;;;;5045842;28;20041;-79
2022/04/11 03:16:28;;;;;;;8.13;3.58;;;1.00;99.90;;;;;;5056418;28;20013;-80
2022/04/11 03:18:54;;;;;;;5.15;3.55;;;1.10;99.90;;;;;;5057972;28;20048;-80
2022/04/11 03:21:19;;;;;;;8.55;3.70;;;1.20;99.90;;;;;;5038792;28;20042;-79
2022/04/11 03:23:45;;;;;;;7.47;4.00;;;1.20;99.90;;;;;;5037356;28;20548;-80
2022/04/11 03:26:11;;;;;;;6.20;3.70;;;1.40;99.90;;;;;;5037471;28;20044;-80
2022/04/11 03:28:36;;;;;;;6.70;3.47;;;1.40;93.00;;;;;;5037427;28;20032;-80
2022/04/11 03:31:02;;;;;;;6.63;3.65;;;1.50;16.70;;;;;;5045922;28;20041;-80
2022/04/11 03:33:28;;;;;;;5.85;3.00;;;1.40;1.00;;;;;;5038575;28;20010;-80
2022/04/11 03:35:54;;;;;;;5.53;2.97;;;1.50;1.00;;;;;;5046231;28;20081;-80
2022/04/11 03:38:19;;;;;;;5.82;3.00;;;1.60;1.00;;;;;;5054888;28;20018;-80
2022/04/11 03:40:45;;;;;;;7.30;3.60;;;1.70;99.90;;;;;;5038140;28;20026;-80
2022/04/11 03:43:10;;;;;;;5.75;2.90;;;1.60;99.90;;;;;;5046406;28;20148;-80
2022/04/11 03:45:36;;;;;;;5.65;3.22;;;1.70;99.90;;;;;;5038436;28;20025;-80
2022/04/11 03:48:02;;;;;;;7.80;3.25;;;1.70;99.90;;;;;;5038448;28;20279;-80
2022/04/11 03:50:28;;;;;;;7.35;2.97;;;1.80;99.90;;;;;;5037907;28;20045;-80
2022/04/11 03:52:53;;;;;;;5.82;3.33;;;1.80;99.90;;;;;;5037139;28;20034;-80
2022/04/11 03:55:20;;;;;;;7.88;3.22;;;2.00;99.90;;;;;;5034066;28;20006;-79
2022/04/11 03:57:46;;;;;;;8.93;3.38;;;2.00;99.90;;;;;;5038598;28;20036;-80
2022/04/11 04:00:14;;;;;;;4.85;3.00;;;2.00;99.90;;;;;;5036384;28;20026;-79
2022/04/11 04:02:39;;;;;;;6.28;3.42;;;2.00;99.90;;;;;;5049370;28;20746;-79
2022/04/11 04:05:05;;;;;;;5.07;3.22;;;2.00;99.90;;;;;;5046780;28;20033;-79
2022/04/11 04:07:31;;;;;;;4.28;3.05;;;2.00;99.90;;;;;;5047051;28;20010;-80
2022/04/11 04:09:56;;;;;;;7.15;3.28;;;2.10;99.90;;;;;;5036073;28;20036;-79
2022/04/11 04:12:22;;;;;;;6.57;3.42;;;2.20;99.90;;;;;;5035735;28;20022;-79
2022/04/11 04:14:49;;;;;;;4.47;3.10;;;2.10;99.90;;;;;;5054267;28;20053;-79
2022/04/11 04:17:15;;;;;;;6.38;3.33;;;2.10;99.90;;;;;;5038972;28;20017;-79
2022/04/11 04:19:41;;;;;;;5.93;3.25;;;2.00;99.90;;;;;;5041020;28;20077;-80
2022/04/11 04:22:07;;;;;;;7.93;3.38;;;2.00;99.90;;;;;;5029329;28;20026;-79
2022/04/11 04:24:34;;;;;;;7.93;3.28;;;2.00;99.90;;;;;;5033038;28;20242;-79
2022/04/11 04:27:01;;;;;;;6.88;3.50;;;2.10;99.90;;;;;;5034839;28;20045;-79
2022/04/11 04:29:27;;;;;;;7.28;3.95;;;2.10;99.90;;;;;;5030432;28;20006;-80
2022/04/11 04:31:53;;;;;;;5.93;3.65;;;2.20;99.90;;;;;;5025807;28;20026;-79
2022/04/11 04:34:20;;;;;;;6.03;2.65;;;2.20;99.90;;;;;;5033967;28;20028;-80
2022/04/11 04:36:46;;;;;;;6.53;2.83;;;2.20;99.90;;;;;;5029201;28;20023;-80
2022/04/11 04:39:12;;;;;;;4.55;3.10;;;2.20;99.90;;;;;;5021896;28;20026;-79
2022/04/11 04:41:38;;;;;;;5.93;3.20;;;2.20;99.90;;;;;;5013689;28;20025;-78
2022/04/11 04:44:06;;;;;;;7.75;3.50;;;2.30;99.90;;;;;;5017765;28;20084;-78
2022/04/11 04:46:34;;;;;;;7.22;3.42;;;2.30;99.90;;;;;;5017733;28;20045;-79
2022/04/11 04:49:00;;;;;;;7.70;3.65;;;2.40;99.90;;;;;;5018697;28;20021;-80
2022/04/11 04:51:26;;;;;;;6.75;3.72;;;2.40;99.90;;;;;;5025080;28;20057;-80
2022/04/11 04:53:52;;;;;;;6.68;3.90;;;2.40;99.90;;;;;;5018660;28;20104;-80
2022/04/11 04:56:17;;;;;;;5.80;3.50;;;2.40;99.90;;;;;;5022879;28;20053;-80
2022/04/11 04:58:46;;;;;;;9.30;3.75;;;2.50;99.90;;;;;;5034507;28;20029;-81
2022/04/11 05:01:15;;;;;;;8.80;4.05;;;2.50;99.90;;;;;;5026545;28;20034;-81
2022/04/11 05:03:41;;;;;;;9.60;4.57;;;2.50;99.90;;;;;;5040102;28;20022;-81
2022/04/11 05:06:07;;;;;;;6.40;4.03;;;2.50;99.90;;;;;;5035166;28;20029;-81
2022/04/11 05:08:33;;;;;;;5.53;3.67;;;2.60;99.90;;;;;;5045767;28;20002;-82
2022/04/11 05:10:59;;;;;;;6.57;3.67;;;2.60;99.90;;;;;;5030349;28;20874;-81
2022/04/11 05:13:25;;;;;;;6.18;4.00;;;2.60;99.90;;;;;;5029506;28;20061;-81
2022/04/11 05:15:50;;;;;;;6.95;3.92;;;2.60;99.90;;;;;;5031544;28;20034;-81
2022/04/11 05:18:16;;;;;;;8.45;3.80;;;2.60;99.90;;;;;;5020618;28;20026;-80
2022/04/11 05:20:41;;;;;;;5.30;3.90;;;2.70;99.90;;;;;;5021364;28;20085;-81
2022/04/11 05:23:07;;;;;;;5.28;3.80;;;2.70;99.90;;;;;;5020567;28;20042;-81
2022/04/11 05:25:33;;;;;;;6.55;4.32;;;2.70;99.90;;;;;;5036069;28;20025;-81
2022/04/11 05:28:00;;;;;;;7.82;4.15;;;2.70;99.90;;;;;;5025613;28;20133;-81
2022/04/11 05:30:25;;;;;;;8.13;4.40;;;2.70;99.90;;;;;;5027633;28;20061;-81
2022/04/11 05:32:51;;;;;;;7.22;4.10;;;2.80;99.90;;;;;;5028751;28;20038;-81
2022/04/11 05:35:17;;;;;;;6.53;3.55;;;2.80;99.90;;;;;;5025206;28;20026;-81
2022/04/11 05:37:42;;;;;;;5.63;3.85;;;2.80;99.90;;;;;;5020953;28;20034;-81
2022/04/11 05:40:12;;;;;;;5.45;4.22;;;2.80;99.90;;;;;;5027702;28;20093;-81
2022/04/11 05:42:38;;;;;;;8.90;3.73;;;2.80;99.90;;;;;;5032876;28;20013;-82
2022/04/11 05:45:04;;;;;;;5.80;3.92;;;2.90;99.90;;;;;;5026205;28;20037;-81
2022/04/11 05:47:30;;;;;;;7.95;3.97;;;2.90;99.90;;;;;;5042144;28;20014;-82
2022/04/11 05:49:56;;;;;;;5.45;4.25;;;3.00;99.90;;;;;;5043615;28;20109;-81
2022/04/11 05:52:21;;;;;;;6.05;4.15;;;3.10;99.90;;;;;;5033400;28;20474;-81
2022/04/11 05:54:47;;;;;;;6.95;4.00;;;3.20;99.90;;;;;;5029359;28;20022;-81
2022/04/11 05:57:13;;;;;;;5.00;3.65;;;3.30;99.90;;;;;;5047167;28;20113;-81
2022/04/11 05:59:38;;;;;;;9.13;3.97;;;3.40;99.90;;;;;;5029204;28;20482;-81
2022/04/11 06:02:04;;;;;;;7.93;4.25;;;3.50;95.20;;;;;;5036636;28;20064;-81
2022/04/11 06:04:30;;;;;;;9.40;4.38;;;3.60;83.50;;;;;;5038587;28;20032;-80
2022/04/11 06:06:55;;;;;;;6.90;3.80;;;3.60;63.30;;;;;;5049463;28;20029;-81
2022/04/11 06:09:21;;;;;;;5.78;4.03;;;3.80;46.00;;;;;;5047550;28;20029;-81
2022/04/11 06:11:46;;;;;;;4.28;3.45;;;3.80;33.70;;;;;;5029244;28;20034;-81
2022/04/11 06:14:12;;;;;;;7.72;4.00;;;3.80;14.40;;;;;;5033448;28;20080;-81
2022/04/11 06:16:46;;;;;;;6.28;3.63;;;3.80;8.10;;;;;;5039154;28;20026;-81
2022/04/11 06:19:12;;;;;;;9.63;3.65;;;4.00;17.90;;;;;;5048682;28;20029;-81
2022/04/11 06:21:37;;;;;;;5.78;4.00;;;4.20;5.30;;;;;;5035544;28;20033;-81
2022/04/11 06:24:03;;;;;;;6.75;3.55;;;4.30;1.00;;;;;;5026914;28;20026;-81
2022/04/11 06:26:29;;;;;;;6.78;3.88;;;4.40;2.90;;;;;;5027197;28;20362;-81
2022/04/11 06:28:54;;;;;;;6.10;4.05;;;4.60;1.00;;;;;;5041876;28;20029;-81
2022/04/11 06:31:20;;;;;;;7.45;3.78;;;4.70;1.00;;;;;;5042620;28;20029;-81
2022/04/11 06:33:45;;;;;;;3.60;2.75;;;4.90;1.00;;;;;;5026845;28;20044;-81
2022/04/11 06:36:11;;;;;;;7.03;3.67;;;4.90;1.00;;;;;;5026546;28;20469;-81
2022/04/11 06:38:36;;;;;;;5.50;3.40;;;5.00;1.00;;;;;;5025675;28;20032;-81
2022/04/11 06:41:03;;;;;;;5.40;3.55;;;5.20;1.00;;;;;;5030273;28;20030;-81
2022/04/11 06:43:28;;;;;;;7.70;3.83;;;5.20;1.00;;;;;;5043912;28;20021;-81
2022/04/11 06:45:54;;;;;;;5.65;3.58;;;5.40;1.00;;;;;;5043617;28;20500;-81
2022/04/11 06:48:19;;;;;;;5.75;3.47;;;5.50;1.00;;;;;;5043386;28;20097;-81
2022/04/11 06:50:45;;;;;;;6.38;3.60;;;5.60;1.00;;;;;;5034995;28;20041;-81
2022/04/11 06:53:14;;;;;;;3.83;3.00;;;5.70;1.00;;;;;;5030777;28;20030;-81
2022/04/11 06:55:40;;;;;;;5.88;3.47;;;5.90;1.00;;;;;;5022132;28;20030;-81
2022/04/11 06:58:05;;;;;;;7.10;3.58;;;6.10;1.00;;;;;;5031255;28;20037;-82
2022/04/11 07:00:31;;;;;;;9.75;3.78;;;6.20;1.00;;;;;;5027850;28;20037;-81
2022/04/11 07:02:57;;;;;;;7.82;3.63;;;6.30;1.00;;;;;;5011222;28;20026;-82
2022/04/11 07:05:22;;;;;;;6.65;3.42;;;6.40;1.00;;;;;;5027296;28;20110;-81
2022/04/11 07:07:49;;;;;;;5.05;3.42;;;6.40;1.00;;;;;;5020354;28;20038;-81
2022/04/11 07:10:32;;;;;;;4.55;3.45;;;6.70;1.00;;;;;;5018988;28;20085;-81
2022/04/11 07:12:59;;;;;;;6.13;3.00;;;6.70;99.90;;;;;;5011882;28;20070;-81
2022/04/11 07:15:25;;;;;;;6.25;3.25;;;6.90;99.90;;;;;;5039895;28;20457;-81
2022/04/11 07:17:51;;;;;;;7.63;2.88;;;6.90;99.90;;;;;;5030941;28;20489;-80
2022/04/11 07:20:16;;;;;;;6.22;3.30;;;7.00;99.90;;;;;;5016953;28;20042;-81
2022/04/11 07:22:42;;;;;;;6.30;3.35;;;6.90;99.90;;;;;;5017946;28;20022;-82
2022/04/11 07:25:09;;;;;;;5.05;3.55;;;7.10;99.90;;;;;;5028612;28;20552;-82
2022/04/11 07:27:35;;;;;;;5.28;3.40;;;7.20;99.90;;;;;;5029318;28;20041;-82
2022/04/11 07:30:01;;;;;;;4.18;3.15;;;7.00;99.90;;;;;;5027158;28;20025;-81
2022/04/11 07:32:26;;;;;;;4.18;2.95;;;7.50;99.90;;;;;;5009254;28;20026;-81
2022/04/11 07:34:52;;;;;;;7.53;3.97;;;8.20;99.90;;;;;;5018284;28;20030;-82
2022/04/11 07:37:19;;;;;;;5.03;3.10;;;8.40;99.90;;;;;;5017433;28;20098;-82
2022/04/11 07:39:44;;;;;;;5.32;2.88;;;8.30;99.90;;;;;;5029660;28;20032;-81
2022/04/11 07:42:10;;;;;;;4.45;2.95;;;8.60;99.90;;;;;;5012418;28;20026;-82
2022/04/11 07:44:35;;;;;;;7.32;3.22;;;9.20;99.90;;;;;;5028074;28;20289;-82
2022/04/11 07:47:01;;;;;;;7.13;2.78;;;9.10;99.90;;;;;;5040842;28;20452;-82
2022/04/11 07:49:27;;;;;;;5.65;2.92;;;9.40;99.90;;;;;;5026556;28;20516;-82
2022/04/11 07:51:52;;;;;;;7.00;2.80;;;10.10;99.90;;;;;;5013113;28;20034;-82
2022/04/11 07:54:18;;;;;;;5.90;2.92;;;10.40;99.90;;;;;;5006820;28;20026;-82
2022/04/11 07:56:43;;;;;;;5.38;2.88;;;10.20;99.90;;;;;;5038121;28;20075;-82
2022/04/11 07:59:09;;;;;;;6.55;3.08;;;11.10;99.90;;;;;;5020528;28;20037;-82
2022/04/11 08:01:34;;;;;;;5.20;2.92;;;11.60;99.90;;;;;;5017635;28;20060;-83
2022/04/11 08:04:00;;;;;;;4.88;2.63;;;12.10;99.90;;;;;;5051048;28;20029;-83
2022/04/11 08:06:25;;;;;;;4.68;3.03;;;12.70;99.90;;;;;;5033831;28;20029;-83
2022/04/11 08:08:51;;;;;;;4.55;2.80;;;12.30;99.90;;;;;;5032980;28;20014;-82
2022/04/11 08:11:20;;;;;;;4.18;2.60;;;12.60;99.90;;;;;;5038788;28;20030;-81
2022/04/11 08:13:46;;;;;;;8.90;3.50;;;12.10;99.90;;;;;;5029746;28;20077;-82
2022/04/11 08:16:12;;;;;;;6.50;2.60;;;14.10;99.90;;;;;;5019391;28;20029;-82
2022/04/11 08:18:38;;;;;;;4.63;2.80;;;14.70;99.90;;;;;;5018636;28;20090;-80
2022/04/11 08:21:04;;;;;;;3.08;2.15;;;16.90;99.90;;;;;;5004418;28;20038;-80
2022/04/11 08:23:31;;;;;;;5.75;2.25;;;17.90;99.90;;;;;;5011920;28;20053;-80
2022/04/11 08:25:57;;;;;;;5.30;2.33;;;19.70;99.90;;;;;;5018471;28;20034;-81
2022/04/11 08:28:23;;;;;;;3.70;2.15;;;20.10;99.90;;;;;;5013065;28;20473;-80
2022/04/11 08:30:49;;;;;;;2.60;1.80;;;21.00;99.90;;;;;;5002161;28;20038;-78
2022/04/11 08:33:15;;;;;;;3.20;1.83;;;23.70;99.90;;;;;;5016662;28;20036;-78
2022/04/11 08:35:42;;;;;;;3.80;1.50;;;25.50;99.90;;;;;;5009144;28;20021;-79
2022/04/11 08:38:07;;;;;;;2.22;1.63;;;24.60;99.90;;;;;;5003716;28;20033;-78
2022/04/11 08:40:33;;;;;;;3.22;1.65;;;23.40;99.90;;;;;;5002066;28;20104;-79
2022/04/11 08:42:59;;;;;;;3.03;1.70;;;23.30;99.90;;;;;;5023711;28;20399;-79
2022/04/11 08:45:27;;;;;;;2.92;1.50;;;24.50;99.90;;;;;;4997420;28;20036;-78
2022/04/11 08:47:56;;;;;;;3.65;1.70;;;24.50;99.90;;;;;;5006314;28;20041;-79
2022/04/11 08:50:26;;;;;;;2.63;1.80;;;24.70;99.90;;;;;;5017925;28;20512;-79
2022/04/11 08:52:54;;;;;;;2.58;1.58;;;24.20;99.90;;;;;;5017366;28;20408;-79
2022/04/11 08:55:21;;;;;;;2.38;1.50;;;24.10;99.90;;;;;;5013866;28;20030;-79
2022/04/11 08:57:47;;;;;;;2.92;1.90;;;24.40;99.90;;;;;;5022967;28;20108;-79
2022/04/11 09:00:15;;;;;;;3.45;1.58;;;24.30;99.90;;;;;;5023069;28;20083;-79
2022/04/11 09:02:42;;;;;;;2.92;1.60;;;23.10;99.90;;;;;;5026641;28;20050;-79
2022/04/11 09:05:09;;;;;;;4.15;1.40;;;22.10;99.90;;;;;;5012845;28;20044;-79
2022/04/11 09:08:01;;;;;;;1.85;1.30;;;25.00;99.90;;;;;;5000273;28;20026;-81
2022/04/11 09:10:32;;;;;;;2.53;1.20;;;25.60;99.90;;;;;;5021090;28;20448;-79
2022/04/11 09:13:03;;;;;;;2.30;1.23;;;24.20;99.90;;;;;;5006654;28;20136;-80
2022/04/11 09:15:41;;;;;;;5.38;1.85;;;25.00;99.90;;;;;;5007078;28;20440;-80
2022/04/11 09:18:06;;;;;;;3.97;1.52;;;24.50;99.90;;;;;;5010915;28;20484;-80
2022/04/11 09:20:32;;;;;;;4.63;1.73;;;22.30;99.90;;;;;;5011709;28;20058;-80
2022/04/11 09:22:58;;;;;;;2.80;1.88;;;22.80;99.90;;;;;;5026178;28;20022;-81
2022/04/11 09:25:29;;;;;;;1.70;1.50;;;22.00;99.90;;;;;;5012793;28;20068;-80
2022/04/11 09:28:12;;;;;;;3.88;1.60;;;22.40;99.90;;;;;;5010472;28;20470;-80
2022/04/11 09:30:39;;;;;;;2.45;1.50;;;23.20;99.90;;;;;;5018119;28;20022;-79
2022/04/11 09:33:07;;;;;;;3.00;1.77;;;23.80;99.90;;;;;;5025918;28;20022;-81
2022/04/11 09:35:41;;;;;;;2.90;1.67;;;21.20;99.90;;;;;;5018583;28;20013;-81
2022/04/11 09:38:20;;;;;;;2.67;1.50;;;21.60;99.90;;;;;;5004407;28;20413;-80
2022/04/11 09:40:54;;;;;;;3.97;1.80;;;20.80;99.90;;;;;;5023852;28;20101;-80
2022/04/11 09:43:46;;;;;;;2.90;1.48;;;23.10;99.90;;;;;;5013007;28;20048;-80
2022/04/11 09:46:12;;;;;;;1.80;1.42;;;22.00;99.90;;;;;;5006168;28;20122;-81
2022/04/11 09:48:38;;;;;;;4.45;1.42;;;23.20;99.90;;;;;;5007925;28;20065;-82
2022/04/11 09:51:13;;;;;;;4.20;1.50;;;22.50;99.90;;;;;;5021200;28;20060;-82
2022/04/11 09:53:39;;;;;;;3.03;1.85;;;23.20;99.90;;;;;;4996216;28;20089;-81
2022/04/11 09:56:08;;;;;;;2.55;1.35;;;23.00;99.90;;;;;;4994800;28;20439;-81
2022/04/11 09:58:35;;;;;;;2.40;1.40;;;24.30;99.90;;;;;;5002840;28;20125;-82
2022/04/11 10:01:02;;;;;;;1.98;1.17;;;24.10;99.90;;;;;;5004533;28;20050;-81
2022/04/11 10:03:28;;;;;;;3.17;1.70;;;22.80;99.90;;;;;;5001912;28;20014;-81
2022/04/11 10:05:55;;;;;;;2.38;1.50;;;22.70;99.90;;;;;;5018151;28;20033;-81
2022/04/11 10:08:24;;;;;;;2.55;1.60;;;22.80;99.90;;;;;;5002902;28;20023;-80
2022/04/11 10:10:51;;;;;;;3.40;1.55;;;21.80;99.90;;;;;;4994854;28;20041;-80
2022/04/11 10:13:17;;;;;;;1.65;1.10;;;23.20;99.90;;;;;;4991805;28;20053;-82
2022/04/11 10:15:46;;;;;;;2.50;1.50;;;21.90;99.90;;;;;;4998314;28;20035;-80
2022/04/11 10:18:15;;;;;;;1.90;1.23;;;20.80;99.90;;;;;;5000970;28;20069;-82
2022/04/11 10:20:44;;;;;;;5.13;1.70;;;23.50;99.90;;;;;;5000394;28;20041;-82
2022/04/11 10:23:30;;;;;;;3.70;1.58;;;22.10;99.90;;;;;;5000562;28;20037;-81
2022/04/11 10:25:58;;;;;;;3.22;1.60;;;20.90;99.90;;;;;;5004120;28;20095;-82
2022/04/11 10:28:28;;;;;;;3.42;1.83;;;20.40;99.90;;;;;;5003767;28;20031;-82
2022/04/11 10:31:11;;;;;;;3.67;2.30;;;20.60;99.90;;;;;;5002858;28;20037;-82
2022/04/11 10:33:51;;;;;;;5.07;2.13;;;20.50;99.90;;;;;;5007025;28;20033;-81
2022/04/11 10:36:29;;;;;;;3.57;2.17;;;20.80;99.90;;;;;;5015320;28;20043;-82
2022/04/11 10:39:17;;;;;;;4.55;2.63;;;21.70;99.90;;;;;;5024622;28;20028;-82
2022/04/11 10:41:54;;;;;;;4.85;3.15;;;24.40;99.90;;;;;;5032840;28;20032;-81
2022/04/11 10:44:41;;;;;;;4.97;2.88;;;26.10;99.90;;;;;;5020530;28;20028;-82
2022/04/11 10:47:10;;;;;;;4.30;2.63;;;24.60;99.90;;;;;;5021760;28;20484;-81
2022/04/11 10:49:44;;;;;;;4.10;2.78;;;23.70;99.90;;;;;;5021159;28;20025;-81
2022/04/11 10:52:29;;;;;;;6.47;3.00;;;22.50;99.90;;;;;;5013239;28;20366;-81
2022/04/11 10:55:12;;;;;;;6.28;3.30;;;21.70;99.90;;;;;;5021203;28;20022;-82
2022/04/11 10:57:50;;;;;;;6.53;3.60;;;21.50;99.90;;;;;;5013515;28;20030;-81
2022/04/11 11:00:18;;;;;;;6.00;4.07;;;23.30;99.90;;;;;;5020798;28;20021;-81
2022/04/11 11:02:50;;;;;;;5.57;3.40;;;21.70;99.90;;;;;;5018368;28;20140;-80
2022/04/11 11:05:40;;;;;;;6.63;3.88;;;22.50;99.90;;;;;;5021591;28;20551;-80
2022/04/11 11:08:12;;;;;;;8.52;4.07;;;20.40;99.90;;;;;;5028729;28;20033;-81
2022/04/11 11:10:38;;;;;;;9.43;5.25;;;17.60;99.90;;;;;;5007282;28;20040;-81
2022/04/11 11:13:38;;;;;;;10.40;5.47;;;16.70;99.90;;;;;;5028924;28;20584;-81
2022/04/11 11:16:07;;;;;;;8.40;5.32;;;16.80;99.90;;;;;;5013086;28;20033;-81
2022/04/11 11:18:51;;;;;;;10.68;5.10;;;16.30;99.90;;;;;;5023625;28;20040;-81
2022/04/11 11:21:33;;;;;;;8.75;5.63;;;17.40;99.90;;;;;;5023958;28;20034;-81
2022/04/11 11:24:04;;;;;;;9.95;5.47;;;16.70;99.90;;;;;;5020846;28;20425;-81
2022/04/11 11:26:39;;;;;;;8.57;4.65;;;16.10;99.90;;;;;;5027760;28;20041;-81
2022/04/11 11:29:31;;;;;;;11.52;5.78;;;15.50;99.90;;;;;;5013253;28;20080;-80
2022/04/11 11:32:02;;;;;;;8.63;5.30;;;14.90;99.90;;;;;;5018162;28;20038;-81
2022/04/11 11:34:30;;;;;;;7.93;5.43;;;15.10;99.90;;;;;;5022257;28;20541;-81
2022/04/11 11:37:07;;;;;;;9.40;5.88;;;15.70;99.90;;;;;;5024566;28;20028;-81
2022/04/11 11:39:37;;;;;;;8.90;6.32;;;15.80;99.90;;;;;;5031043;28;20089;-80
2022/04/11 11:42:05;;;;;;;8.52;6.38;;;15.70;99.90;;;;;;5021063;28;20026;-81
2022/04/11 11:44:32;;;;;;;9.27;6.60;;;15.40;99.90;;;;;;5013158;28;20098;-82
2022/04/11 11:47:00;;;;;;;11.63;7.47;;;15.60;99.90;;;;;;5021842;28;20068;-81
2022/04/11 11:49:38;;;;;;;10.80;6.95;;;15.00;99.90;;;;;;5030866;28;20022;-81
2022/04/11 11:52:17;;;;;;;11.30;6.85;;;15.00;99.90;;;;;;5019931;28;20030;-80
2022/04/11 11:54:45;;;;;;;9.93;7.20;;;14.90;99.90;;;;;;5020717;28;20513;-81
2022/04/11 11:57:24;;;;;;;12.35;6.90;;;15.30;99.90;;;;;;5026077;28;20416;-81
2022/04/11 12:00:03;;;;;;;9.87;6.70;;;14.90;99.90;;;;;;5004798;28;20041;-81
2022/04/11 12:05:16;;;;;;;9.43;6.00;;;15.50;99.90;;;;;;5015226;28;20092;-80
2022/04/11 12:07:42;;;;;;;8.38;6.40;;;15.60;99.90;;;;;;5019918;28;20014;-81
2022/04/11 12:10:09;;;;;;;9.13;6.70;;;16.10;99.90;;;;;;5023894;28;20028;-81
2022/04/11 12:12:34;;;;;;;11.15;7.60;;;15.70;99.90;;;;;;5020886;28;20393;-81
2022/04/11 12:15:07;;;;;;;10.05;6.57;;;15.70;99.90;;;;;;5014123;28;20466;-81
2022/04/11 12:17:42;;;;;;;11.13;6.13;;;15.90;99.90;;;;;;5019037;28;20057;-80
2022/04/11 12:20:20;;;;;;;9.73;7.15;;;15.70;99.90;;;;;;5022342;28;20392;-81
2022/04/11 12:23:02;;;;;;;8.07;7.05;;;15.00;99.90;;;;;;5015123;28;20032;-81
2022/04/11 12:25:34;;;;;;;10.05;7.05;;;15.40;99.90;;;;;;5015026;28;20022;-81
2022/04/11 12:28:19;;;;;;;11.45;7.07;;;15.60;99.90;;;;;;5031803;28;20022;-81
2022/04/11 12:31:12;;;;;;;11.80;7.43;;;15.60;99.90;;;;;;5022287;28;20409;-82
2022/04/11 12:33:46;;;;;;;11.23;7.40;;;15.20;99.90;;;;;;5013687;28;20105;-81
2022/04/11 12:36:20;;;;;;;11.50;7.03;;;15.50;99.90;;;;;;5015132;28;20530;-81
2022/04/11 12:39:09;;;;;;;9.65;6.90;;;15.70;99.90;;;;;;5029490;28;20044;-82
2022/04/11 12:41:43;;;;;;;11.48;7.60;;;15.70;99.90;;;;;;5011358;28;20029;-81
2022/04/11 12:44:14;;;;;;;9.32;7.35;;;15.30;99.90;;;;;;5030317;28;20025;-81
2022/04/11 12:46:47;;;;;;;9.98;7.50;;;15.30;99.90;;;;;;5022673;28;20022;-80
2022/04/11 12:49:15;;;;;;;11.13;7.10;;;15.20;99.90;;;;;;5029094;28;20428;-81
2022/04/11 12:51:42;;;;;;;11.40;7.82;;;15.30;99.90;;;;;;5011518;28;20087;-81
2022/04/11 12:54:13;;;;;;;11.98;7.93;;;15.20;99.90;;;;;;5019972;28;20056;-80
2022/04/11 12:56:46;;;;;;;12.02;7.57;;;15.70;99.90;;;;;;5017759;28;20037;-81
2022/04/11 12:59:33;;;;;;;10.25;7.25;;;15.70;99.90;;;;;;5018155;28;20032;-80
2022/04/11 13:02:08;;;;;;;9.80;7.38;;;15.30;99.90;;;;;;5000830;28;20339;-81